Time;durP1;ratioP1;P1;durP2;ratioP2;P2;SDS_P1;SDS_P2;PMS_P1;PMS_P2;Temp;Humidity;BMP_temperature;BMP_pressure;BME280_temperature;BME280_humidity;BME280_pressure;Samples;Min_cycle;Max_cycle;Signal;HPM_P1;HPM_P2
2022/10/10 00:01:30;;;;;;;0.40;0.40;;;;;;;11.79;79.57;100775.75;5085216;28;20029;-66
2022/10/10 00:03:56;;;;;;;0.40;0.40;;;;;;;11.87;78.67;100786.97;5085390;28;20020;-66
2022/10/10 00:06:23;;;;;;;0.40;0.40;;;;;;;11.70;78.70;100760.22;5085416;28;20020;-67
2022/10/10 00:08:49;;;;;;;0.40;0.40;;;;;;;11.82;78.76;100773.13;5090881;28;20024;-67
2022/10/10 00:11:16;;;;;;;0.60;0.60;;;;;;;11.80;78.49;100774.88;5091811;28;20108;-67
2022/10/10 00:13:42;;;;;;;0.40;0.40;;;;;;;11.66;78.62;100754.19;5091955;28;20120;-67
2022/10/10 00:16:08;;;;;;;0.40;0.40;;;;;;;11.74;78.63;100770.56;5091867;28;20036;-66
2022/10/10 00:18:34;;;;;;;0.40;0.40;;;;;;;11.73;78.75;100767.97;5091882;28;20020;-68
2022/10/10 00:20:59;;;;;;;0.40;0.40;;;;;;;11.68;78.85;100767.19;5091870;28;20020;-66
2022/10/10 00:23:25;;;;;;;0.40;0.40;;;;;;;11.65;78.52;100762.84;5091792;28;20044;-67
2022/10/10 00:25:50;;;;;;;0.40;0.40;;;;;;;11.51;78.76;100748.22;5073912;28;20429;-66
2022/10/10 00:28:16;;;;;;;0.40;0.40;;;;;;;11.60;78.49;100759.41;5073874;28;20503;-66
2022/10/10 00:30:42;;;;;;;0.90;0.90;;;;;;;11.64;77.99;100755.94;5091685;28;20026;-66
2022/10/10 00:33:07;;;;;;;0.40;0.40;;;;;;;11.51;78.57;100743.00;5091498;28;20024;-66
2022/10/10 00:35:33;;;;;;;0.40;0.40;;;;;;;11.56;78.11;100740.38;5090392;28;20021;-67
2022/10/10 00:37:58;;;;;;;0.95;0.95;;;;;;;11.59;78.29;100757.69;5091647;28;20028;-67
2022/10/10 00:40:24;;;;;;;0.40;0.40;;;;;;;11.49;78.42;100743.88;5092298;28;20103;-67
2022/10/10 00:42:49;;;;;;;0.40;0.40;;;;;;;11.47;78.37;100743.88;5091768;28;20044;-67
2022/10/10 00:45:19;;;;;;;0.40;0.40;;;;;;;11.37;78.76;100740.47;5091764;28;20023;-67
2022/10/10 00:47:46;;;;;;;0.40;0.40;;;;;;;11.34;78.63;100742.25;5091662;28;20020;-67
2022/10/10 00:50:11;;;;;;;0.40;0.40;;;;;;;11.31;78.87;100732.72;5090309;28;20083;-67
2022/10/10 00:52:38;;;;;;;0.40;0.40;;;;;;;11.31;78.93;100731.88;5091479;28;20119;-67
2022/10/10 00:55:04;;;;;;;0.40;0.40;;;;;;;11.24;78.67;100720.66;5091615;28;20025;-66
2022/10/10 00:57:29;;;;;;;0.40;0.40;;;;;;;11.26;78.76;100727.56;5072795;28;20418;-66
2022/10/10 00:59:55;;;;;;;0.40;0.40;;;;;;;11.21;78.88;100726.75;5090400;28;20059;-66
2022/10/10 01:02:21;;;;;;;0.40;0.40;;;;;;;11.19;78.94;100717.22;5090805;28;20024;-66
2022/10/10 01:04:46;;;;;;;0.45;0.45;;;;;;;11.18;79.45;100707.69;5091862;28;20084;-67
2022/10/10 01:07:15;;;;;;;0.40;0.40;;;;;;;11.07;79.33;100703.41;5073574;28;20052;-66
2022/10/10 01:09:42;;;;;;;0.40;0.40;;;;;;;11.15;79.19;100719.84;5091661;28;20078;-65
2022/10/10 01:12:10;;;;;;;0.40;0.40;;;;;;;11.11;79.62;100732.84;5091400;28;20088;-66
2022/10/10 01:15:04;;;;;;;0.40;0.40;;;;;;;11.11;79.47;100728.53;5091642;28;20196;-66
2022/10/10 01:17:46;;;;;;;0.55;0.55;;;;;;;11.07;79.65;100724.19;5077135;28;20082;-66
2022/10/10 01:20:42;;;;;;;0.40;0.40;;;;;;;11.11;79.47;100727.66;5096013;28;20021;-66
2022/10/10 01:23:18;;;;;;;0.40;0.40;;;;;;;11.13;79.18;100715.53;5087950;28;20045;-67
2022/10/10 01:26:10;;;;;;;0.40;0.40;;;;;;;11.07;79.15;100702.56;5070295;28;20025;-67
2022/10/10 01:28:41;;;;;;;6.45;4.78;;;;;;;11.14;79.07;100710.31;5088017;28;20055;-67
2022/10/10 01:31:10;;;;;;;0.50;0.50;;;;;;;11.00;78.88;100700.00;5088032;28;20028;-67
2022/10/10 01:33:58;;;;;;;0.40;0.40;;;;;;;10.82;78.95;100689.69;5087813;28;20048;-66
2022/10/10 01:36:46;;;;;;;0.40;0.40;;;;;;;10.92;78.96;100701.78;5069692;28;20028;-67
2022/10/10 01:39:11;;;;;;;0.40;0.40;;;;;;;10.87;78.78;100698.34;5087547;28;20024;-65
2022/10/10 01:41:46;;;;;;;0.40;0.40;;;;;;;10.76;79.33;100690.59;5087581;28;20090;-65
2022/10/10 01:44:11;;;;;;;0.40;0.40;;;;;;;10.72;79.01;100689.75;5087782;28;20037;-65
2022/10/10 01:46:37;;;;;;;0.40;0.40;;;;;;;10.66;79.25;100688.03;5087607;28;20023;-68
2022/10/10 01:49:02;;;;;;;0.40;0.40;;;;;;;10.63;79.13;100687.19;5087634;28;20025;-67
2022/10/10 01:51:58;;;;;;;0.40;0.40;;;;;;;10.69;79.22;100692.34;5087456;28;20302;-66
2022/10/10 01:54:39;;;;;;;0.40;0.40;;;;;;;10.71;79.23;100677.63;5087782;28;20028;-66
2022/10/10 01:57:14;;;;;;;0.47;0.47;;;;;;;10.58;79.31;100669.03;5069557;28;20119;-67
2022/10/10 01:59:58;;;;;;;0.40;0.40;;;;;;;10.73;79.00;100675.03;5087363;28;20024;-65
2022/10/10 02:02:32;;;;;;;0.40;0.40;;;;;;;10.71;79.22;100668.97;5069274;28;20032;-67
2022/10/10 02:05:15;;;;;;;0.40;0.40;;;;;;;10.69;79.51;100670.75;5087326;28;20024;-65
2022/10/10 02:07:55;;;;;;;0.40;0.40;;;;;;;10.66;79.46;100669.88;5087187;28;20016;-66
2022/10/10 02:10:27;;;;;;;0.30;0.30;;;;;;;10.66;79.11;100651.69;5087352;28;20063;-66
2022/10/10 02:12:53;;;;;;;;;;;;;;;10.78;79.13;100663.75;5069661;28;20088;-66
2022/10/10 02:15:23;;;;;;;0.40;0.40;;;;;;;10.70;79.29;100659.47;5087339;28;20348;-67
2022/10/10 02:17:50;;;;;;;0.40;0.40;;;;;;;10.71;79.50;100651.66;5086853;28;20024;-66
2022/10/10 02:20:19;;;;;;;0.40;0.40;;;;;;;10.68;79.59;100640.44;5085602;28;20021;-67
2022/10/10 02:22:45;;;;;;;0.80;0.80;;;;;;;10.68;79.67;100641.31;5086867;28;20040;-67
2022/10/10 02:25:11;;;;;;;0.40;0.40;;;;;;;10.65;79.60;100652.53;5086842;28;20020;-67
2022/10/10 02:27:57;;;;;;;0.40;0.40;;;;;;;10.65;79.70;100636.97;5086979;28;20042;-67
2022/10/10 02:30:23;;;;;;;0.50;0.50;;;;;;;10.59;79.75;100643.94;5086372;28;20027;-67
2022/10/10 02:32:54;;;;;;;0.60;0.60;;;;;;;10.57;79.66;100633.56;5086562;28;20024;-68
2022/10/10 02:35:30;;;;;;;0.50;0.50;;;;;;;10.47;80.16;100618.91;5086755;28;20054;-68
2022/10/10 02:37:58;;;;;;;0.40;0.40;;;;;;;10.46;80.04;100620.66;5086551;28;20060;-66
2022/10/10 02:40:29;;;;;;;0.40;0.40;;;;;;;10.52;80.22;100628.41;5068710;28;20062;-67
2022/10/10 02:42:58;;;;;;;0.50;0.50;;;;;;;10.39;80.62;100604.19;5086691;28;20099;-66
2022/10/10 02:45:25;;;;;;;0.40;0.40;;;;;;;10.44;80.34;100627.53;5086444;28;20016;-68
2022/10/10 02:47:51;;;;;;;0.50;0.50;;;;;;;10.43;80.60;100625.81;5086355;28;20027;-65
2022/10/10 02:50:16;;;;;;;0.40;0.40;;;;;;;10.41;80.81;100618.00;5086294;28;20024;-66
2022/10/10 02:52:42;;;;;;;0.40;0.40;;;;;;;10.33;80.83;100608.53;5086633;28;20058;-68
2022/10/10 02:55:08;;;;;;;0.40;0.40;;;;;;;10.31;81.09;100605.09;5086274;28;20025;-67
2022/10/10 02:57:33;;;;;;;0.40;0.40;;;;;;;10.37;81.33;100616.31;5086081;28;20033;-67
2022/10/10 02:59:59;;;;;;;2.22;2.08;;;;;;;10.28;81.24;100605.97;5086398;28;20035;-67
2022/10/10 03:02:24;;;;;;;2.83;1.58;;;;;;;10.31;81.14;100618.06;5085760;28;20044;-67
2022/10/10 03:04:49;;;;;;;0.47;0.47;;;;;;;10.31;81.45;100605.97;5086067;28;20108;-67
2022/10/10 03:07:15;;;;;;;0.47;0.47;;;;;;;10.28;81.43;100601.66;5086102;28;20020;-67
2022/10/10 03:09:40;;;;;;;0.40;0.40;;;;;;;10.36;81.66;100601.63;5085949;28;20033;-67
2022/10/10 03:12:05;;;;;;;0.40;0.40;;;;;;;10.39;81.88;100598.13;5085976;28;20028;-66
2022/10/10 03:14:31;;;;;;;0.40;0.40;;;;;;;10.38;82.15;100597.25;5085905;28;20028;-66
2022/10/10 03:16:56;;;;;;;0.40;0.40;;;;;;;10.45;81.67;100598.09;5085452;28;20028;-67
2022/10/10 03:19:22;;;;;;;0.40;0.40;;;;;;;10.40;81.97;100600.72;5085976;28;20043;-67
2022/10/10 03:21:47;;;;;;;0.40;0.40;;;;;;;10.35;82.11;100599.88;5085669;28;20017;-67
2022/10/10 03:24:12;;;;;;;0.40;0.40;;;;;;;10.31;82.10;100595.56;5085589;28;20041;-66
2022/10/10 03:26:38;;;;;;;0.50;0.50;;;;;;;10.16;82.27;100568.81;5066987;28;20021;-67
2022/10/10 03:29:04;;;;;;;0.40;0.40;;;;;;;10.31;82.04;100592.97;5084552;28;20028;-66
2022/10/10 03:31:30;;;;;;;0.30;0.30;;;;;;;10.31;82.29;100574.81;5085471;28;20025;-66
2022/10/10 03:33:55;;;;;;;0.77;0.77;;;;;;;10.30;82.49;100575.69;5067374;28;20030;-66
2022/10/10 03:36:21;;;;;;;0.40;0.40;;;;;;;10.20;82.46;100567.09;5085577;28;20088;-67
2022/10/10 03:38:47;;;;;;;0.93;0.93;;;;;;;10.24;82.47;100565.34;5085650;28;20187;-66
2022/10/10 03:41:12;;;;;;;0.40;0.40;;;;;;;10.25;82.37;100562.75;5085507;28;20025;-66
2022/10/10 03:43:38;;;;;;;0.40;0.40;;;;;;;10.24;82.13;100548.03;5084784;28;20376;-67
2022/10/10 03:46:03;;;;;;;0.40;0.40;;;;;;;10.33;82.22;100565.31;5085390;28;20020;-66
2022/10/10 03:48:29;;;;;;;0.40;0.40;;;;;;;10.28;82.30;100543.69;5085355;28;20020;-69
2022/10/10 03:50:54;;;;;;;0.40;0.40;;;;;;;10.25;82.22;100546.31;5085372;28;20056;-68
2022/10/10 03:53:19;;;;;;;0.40;0.40;;;;;;;10.28;82.46;100549.75;5085563;28;20108;-66
2022/10/10 03:55:45;;;;;;;0.40;0.40;;;;;;;10.28;82.14;100551.47;5085353;28;20029;-66
2022/10/10 03:58:10;;;;;;;0.60;0.60;;;;;;;10.35;82.23;100557.50;5085224;28;20029;-66
2022/10/10 04:00:36;;;;;;;0.40;0.40;;;;;;;10.32;81.87;100547.97;5085286;28;20080;-68
2022/10/10 04:03:05;;;;;;;0.60;0.60;;;;;;;10.30;81.86;100541.97;5084982;28;20028;-66
2022/10/10 04:05:36;;;;;;;0.55;0.55;;;;;;;10.29;82.04;100543.69;5067282;28;20024;-65
2022/10/10 04:08:01;;;;;;;0.50;0.50;;;;;;;10.26;82.03;100533.31;5085267;28;20024;-66
2022/10/10 04:10:27;;;;;;;0.40;0.40;;;;;;;10.25;81.96;100533.34;5085256;28;20029;-68
2022/10/10 04:12:52;;;;;;;4.60;4.18;;;;;;;10.30;82.03;100536.78;5085411;28;20024;-67
2022/10/10 04:15:17;;;;;;;0.77;0.77;;;;;;;10.30;81.71;100534.19;5085193;28;20021;-67
2022/10/10 04:17:43;;;;;;;0.40;0.40;;;;;;;10.20;81.74;100516.91;5084971;28;20020;-67
2022/10/10 04:20:08;;;;;;;0.40;0.40;;;;;;;10.26;81.99;100520.34;5067200;28;20052;-66
2022/10/10 04:22:34;;;;;;;0.40;0.40;;;;;;;10.34;81.56;100519.44;5084910;28;20088;-64
2022/10/10 04:24:59;;;;;;;0.40;0.40;;;;;;;10.28;81.85;100515.16;5084769;28;20051;-65
2022/10/10 04:27:24;;;;;;;0.40;0.40;;;;;;;10.24;82.06;100505.66;5083789;28;20080;-66
2022/10/10 04:29:53;;;;;;;0.40;0.40;;;;;;;10.27;81.54;100505.66;5084332;28;20031;-66
2022/10/10 04:32:18;;;;;;;0.50;0.50;;;;;;;10.28;81.68;100500.47;5084604;28;20024;-66
2022/10/10 04:34:43;;;;;;;0.40;0.40;;;;;;;10.27;81.42;100501.31;5085068;28;20024;-66
2022/10/10 04:37:09;;;;;;;0.40;0.40;;;;;;;10.12;81.65;100480.63;5084876;28;20380;-66
2022/10/10 04:39:34;;;;;;;0.40;0.40;;;;;;;10.12;81.95;100478.03;5084969;28;20021;-68
2022/10/10 04:41:59;;;;;;;0.40;0.40;;;;;;;10.13;81.80;100483.22;5066741;28;20020;-71
2022/10/10 04:44:25;;;;;;;1.02;1.02;;;;;;;10.22;81.92;100487.53;5085124;28;20029;-71
2022/10/10 04:46:50;;;;;;;0.40;0.40;;;;;;;10.23;81.83;100493.53;5084528;28;20048;-68
2022/10/10 04:49:15;;;;;;;0.50;0.50;;;;;;;10.21;81.85;100490.13;5084750;28;20043;-69
2022/10/10 04:51:41;;;;;;;0.73;0.73;;;;;;;10.20;81.83;100491.84;5084753;28;20025;-69
2022/10/10 04:54:06;;;;;;;0.40;0.40;;;;;;;10.21;81.91;100492.72;5086547;28;20175;-69
2022/10/10 04:56:34;;;;;;;0.40;0.40;;;;;;;10.22;81.25;100476.25;5087135;28;20021;-68
2022/10/10 04:59:03;;;;;;;0.40;0.40;;;;;;;10.20;81.47;100478.88;5088868;28;20035;-67
2022/10/10 05:01:28;;;;;;;0.47;0.47;;;;;;;10.11;81.69;100474.56;5088498;28;20058;-69
2022/10/10 05:03:54;;;;;;;0.60;0.60;;;;;;;9.94;81.92;100450.47;5088342;28;20020;-69
2022/10/10 05:06:20;;;;;;;0.40;0.40;;;;;;;9.85;82.16;100452.25;5088688;28;20024;-68
2022/10/10 05:08:45;;;;;;;0.40;0.40;;;;;;;9.85;82.41;100447.06;5088384;28;20576;-68
2022/10/10 05:11:10;;;;;;;0.50;0.50;;;;;;;9.85;82.47;100456.56;5088194;28;20032;-68
2022/10/10 05:13:36;;;;;;;0.40;0.40;;;;;;;9.69;83.15;100435.03;5070299;28;20033;-68
2022/10/10 05:16:01;;;;;;;0.40;0.40;;;;;;;9.71;83.17;100443.66;5070542;28;20021;-69
2022/10/10 05:18:26;;;;;;;0.40;0.40;;;;;;;9.62;83.42;100427.28;5088067;28;20021;-67
2022/10/10 05:20:52;;;;;;;0.50;0.50;;;;;;;9.53;83.64;100420.41;5088344;28;20029;-69
2022/10/10 05:23:17;;;;;;;11.80;3.22;;;;;;;9.67;83.34;100422.06;5066513;28;20049;-69
2022/10/10 05:25:46;;;;;;;0.40;0.40;;;;;;;9.60;83.65;100439.38;5066765;28;20036;-69
2022/10/10 05:28:11;;;;;;;0.82;0.82;;;;;;;9.65;83.46;100428.97;5066773;28;20067;-67
2022/10/10 05:30:37;;;;;;;0.55;0.55;;;;;;;9.48;84.23;100429.94;5068027;28;20017;-68
2022/10/10 05:33:08;;;;;;;0.40;0.40;;;;;;;9.44;84.58;100432.53;5067567;28;20472;-68
2022/10/10 05:36:13;;;;;;;0.50;0.50;;;;;;;9.49;84.84;100428.22;5083694;28;20029;-69
2022/10/10 05:38:40;;;;;;;0.40;0.40;;;;;;;9.37;84.84;100426.50;5028821;28;20125;-67
2022/10/10 05:41:06;;;;;;;0.40;0.40;;;;;;;9.28;84.61;100404.09;5067560;28;20028;-67
2022/10/10 05:43:32;;;;;;;0.50;0.50;;;;;;;9.23;85.05;100400.66;5067713;28;20028;-67
2022/10/10 05:45:57;;;;;;;0.40;0.40;;;;;;;9.32;85.16;100416.16;5067492;28;20032;-68
2022/10/10 05:48:23;;;;;;;0.50;0.50;;;;;;;9.34;84.89;100406.66;5066020;28;20025;-68
2022/10/10 05:50:53;;;;;;;0.50;0.50;;;;;;;9.44;84.68;100406.63;5067612;28;20029;-68
2022/10/10 05:53:29;;;;;;;0.40;0.40;;;;;;;9.36;85.21;100399.72;5066720;28;20017;-70
2022/10/10 05:55:55;;;;;;;0.50;0.50;;;;;;;9.34;85.32;100400.59;5067474;28;20031;-67
2022/10/10 05:58:21;;;;;;;0.50;0.50;;;;;;;9.41;85.00;100400.56;5067476;28;20025;-67
2022/10/10 06:00:46;;;;;;;0.50;0.50;;;;;;;9.45;85.01;100405.75;5067202;28;20029;-68
2022/10/10 06:03:15;;;;;;;0.50;0.50;;;;;;;9.48;84.91;100396.25;5066905;28;20319;-67
2022/10/10 06:05:42;;;;;;;0.40;0.40;;;;;;;9.48;84.76;100379.81;5066273;28;20047;-68
2022/10/10 06:08:07;;;;;;;0.40;0.40;;;;;;;9.46;84.71;100378.94;5067304;28;20049;-67
2022/10/10 06:10:38;;;;;;;0.50;0.50;;;;;;;9.52;85.18;100394.50;5067036;28;20493;-67
2022/10/10 06:13:03;;;;;;;0.40;0.40;;;;;;;9.42;85.29;100375.53;5082222;28;20028;-68
2022/10/10 06:15:29;;;;;;;0.40;0.40;;;;;;;9.58;84.48;100381.50;5066905;28;20029;-67
2022/10/10 06:17:54;;;;;;;0.40;0.40;;;;;;;9.71;84.71;100392.69;5066891;28;20040;-67
2022/10/10 06:20:20;;;;;;;0.40;0.40;;;;;;;9.78;84.36;100385.72;5067141;28;20025;-68
2022/10/10 06:22:45;;;;;;;0.30;0.30;;;;;;;9.77;84.58;100387.47;5065232;28;20137;-69
2022/10/10 06:25:11;;;;;;;0.50;0.50;;;;;;;9.83;84.22;100378.78;5065635;28;20021;-68
2022/10/10 06:27:36;;;;;;;0.40;0.40;;;;;;;9.94;84.15;100372.66;5067163;28;20029;-69
2022/10/10 06:30:02;;;;;;;5.57;2.90;;;;;;;9.79;83.72;100356.34;5066733;28;20024;-69
2022/10/10 06:32:27;;;;;;;0.50;0.50;;;;;;;9.92;83.36;100377.84;5066636;28;20025;-67
2022/10/10 06:34:53;;;;;;;0.60;0.60;;;;;;;9.98;83.74;100382.16;5066802;28;20380;-67
2022/10/10 06:37:18;;;;;;;0.50;0.50;;;;;;;10.09;83.98;100371.72;5066703;28;20029;-68
2022/10/10 06:39:43;;;;;;;0.50;0.50;;;;;;;10.28;83.56;100364.66;5066779;28;20067;-66
2022/10/10 06:42:09;;;;;;;0.40;0.40;;;;;;;10.45;83.43;100368.84;5066235;28;20031;-68
2022/10/10 06:44:34;;;;;;;0.40;0.40;;;;;;;10.81;81.82;100364.22;5066783;28;20052;-69
2022/10/10 06:46:59;;;;;;;0.50;0.50;;;;;;;10.80;81.83;100359.88;5066275;28;20051;-67
2022/10/10 06:49:25;;;;;;;0.40;0.40;;;;;;;10.88;81.46;100352.88;5066473;28;20385;-67
2022/10/10 06:51:50;;;;;;;0.47;0.47;;;;;;;11.27;81.23;100351.59;5064789;28;20028;-68
2022/10/10 06:54:16;;;;;;;0.85;0.85;;;;;;;11.44;79.95;100340.13;5066277;28;20049;-66
2022/10/10 06:56:41;;;;;;;0.40;0.40;;;;;;;11.76;79.48;100349.22;5064488;28;20021;-68
2022/10/10 06:59:06;;;;;;;1.05;1.05;;;;;;;12.10;77.24;100347.88;5066211;28;20557;-68
2022/10/10 07:01:32;;;;;;;0.50;0.50;;;;;;;12.06;77.37;100341.81;5066200;28;20029;-68
2022/10/10 07:03:57;;;;;;;0.40;0.40;;;;;;;12.03;76.63;100327.13;5066125;28;20028;-68
2022/10/10 07:06:22;;;;;;;0.40;0.40;;;;;;;12.16;76.82;100324.34;5064596;28;20028;-69
2022/10/10 07:08:48;;;;;;;0.40;0.40;;;;;;;12.15;75.63;100325.25;5065982;28;20052;-67
2022/10/10 07:11:13;;;;;;;0.40;0.40;;;;;;;11.86;76.39;100317.00;5065870;28;20021;-68
2022/10/10 07:13:39;;;;;;;0.40;0.40;;;;;;;11.76;76.65;100331.88;5065973;28;20031;-67
2022/10/10 07:16:05;;;;;;;0.40;0.40;;;;;;;11.73;76.56;100333.66;5065753;28;20020;-67
2022/10/10 07:18:31;;;;;;;2.25;2.15;;;;;;;11.57;76.70;100315.66;5065603;28;20199;-68
2022/10/10 07:20:57;;;;;;;0.40;0.40;;;;;;;11.59;76.72;100329.53;5065853;28;20092;-66
2022/10/10 07:23:22;;;;;;;0.40;0.40;;;;;;;11.42;77.54;100318.50;5065609;28;20045;-67
2022/10/10 07:25:48;;;;;;;0.45;0.45;;;;;;;11.42;77.59;100321.97;5065721;28;20048;-67
2022/10/10 07:28:13;;;;;;;0.40;0.40;;;;;;;11.55;77.43;100312.22;5065661;28;20447;-66
2022/10/10 07:30:43;;;;;;;0.40;0.40;;;;;;;11.57;77.40;100318.28;5065653;28;20025;-67
2022/10/10 07:33:12;;;;;;;0.60;0.60;;;;;;;11.52;77.12;100307.94;5063937;28;20017;-69
2022/10/10 07:35:38;;;;;;;0.75;0.75;;;;;;;11.39;77.66;100301.16;5065717;28;20043;-67
2022/10/10 07:38:03;;;;;;;0.40;0.40;;;;;;;11.35;78.13;100302.09;5065629;28;20044;-67
2022/10/10 07:40:28;;;;;;;0.40;0.40;;;;;;;11.47;78.18;100303.69;5064348;28;20396;-67
2022/10/10 07:42:54;;;;;;;0.50;0.50;;;;;;;11.53;77.87;100303.59;5065455;28;20433;-68
2022/10/10 07:45:19;;;;;;;0.40;0.40;;;;;;;11.52;77.55;100299.28;5065468;28;20020;-67
2022/10/10 07:47:44;;;;;;;0.40;0.40;;;;;;;11.45;77.60;100300.25;5065289;28;20418;-69
2022/10/10 07:50:11;;;;;;;0.40;0.40;;;;;;;11.46;77.55;100296.75;5063992;28;20473;-69
2022/10/10 07:52:37;;;;;;;0.40;0.40;;;;;;;11.37;78.36;100289.97;5063856;28;20029;-68
2022/10/10 07:55:03;;;;;;;3.78;3.53;;;;;;;11.61;77.96;100290.50;5063987;28;20039;-68
2022/10/10 07:57:33;;;;;;;0.30;0.30;;;;;;;11.84;77.47;100281.47;5065145;28;20108;-68
2022/10/10 08:00:00;;;;;;;0.40;0.40;;;;;;;11.89;77.01;100270.13;5065693;28;20029;-68
2022/10/10 08:02:25;;;;;;;0.40;0.40;;;;;;;12.12;76.56;100274.09;5065111;28;20029;-68
2022/10/10 08:04:51;;;;;;;0.40;0.40;;;;;;;12.35;75.11;100280.66;5065230;28;20041;-69
2022/10/10 08:07:18;;;;;;;14.25;3.90;;;;;;;12.35;74.87;100279.78;5065246;28;20025;-67
2022/10/10 08:09:43;;;;;;;0.40;0.40;;;;;;;12.19;75.76;100274.84;5080528;28;20040;-68
2022/10/10 08:12:09;;;;;;;0.40;0.40;;;;;;;12.14;74.74;100263.69;5064947;28;20029;-69
2022/10/10 08:14:34;;;;;;;0.40;0.40;;;;;;;11.99;75.76;100276.03;5065126;28;20032;-68
2022/10/10 08:16:59;;;;;;;0.40;0.40;;;;;;;11.98;75.85;100274.31;5063536;28;20082;-67
2022/10/10 08:19:25;;;;;;;1.48;1.38;;;;;;;11.96;75.69;100264.81;5065126;28;20092;-68
2022/10/10 08:21:50;;;;;;;0.43;0.43;;;;;;;12.01;75.65;100274.25;5065100;28;20076;-68
2022/10/10 08:24:15;;;;;;;0.40;0.40;;;;;;;12.00;76.47;100269.06;5064833;28;20049;-69
2022/10/10 08:26:41;;;;;;;0.40;0.40;;;;;;;12.34;76.71;100250.31;5064924;28;20059;-68
2022/10/10 08:29:06;;;;;;;0.50;0.50;;;;;;;12.86;74.97;100262.38;5066465;28;20029;-69
2022/10/10 08:31:31;;;;;;;0.40;0.40;;;;;;;12.91;73.64;100249.25;5068970;28;20040;-68
2022/10/10 08:33:57;;;;;;;0.40;0.40;;;;;;;13.36;73.91;100271.72;5069065;28;20116;-68
2022/10/10 08:36:23;;;;;;;0.40;0.40;;;;;;;13.67;72.33;100265.84;5068543;28;20052;-68
2022/10/10 08:38:51;;;;;;;0.40;0.40;;;;;;;13.99;72.63;100261.59;5068967;28;20059;-68
2022/10/10 08:41:31;;;;;;;1.35;1.35;;;;;;;14.25;71.38;100260.06;5084113;28;20046;-69
2022/10/10 08:44:10;;;;;;;0.40;0.40;;;;;;;14.26;69.61;100242.66;5068883;28;20032;-68
2022/10/10 08:46:43;;;;;;;0.40;0.40;;;;;;;14.11;68.26;100238.69;5067645;28;20032;-69
2022/10/10 08:49:33;;;;;;;0.40;0.40;;;;;;;13.83;69.22;100244.59;5068619;28;20016;-69
2022/10/10 08:52:17;;;;;;;0.40;0.40;;;;;;;13.61;68.91;100237.31;5068738;28;20021;-69
2022/10/10 08:54:43;;;;;;;0.40;0.40;;;;;;;13.42;69.28;100244.69;5068638;28;20048;-69
2022/10/10 08:57:25;;;;;;;1.75;1.70;;;;;;;13.41;70.33;100242.94;5068673;28;20025;-68
2022/10/10 08:59:55;;;;;;;14.00;4.05;;;;;;;13.54;70.56;100228.78;5068678;28;20024;-68
2022/10/10 09:02:50;;;;;;;0.40;0.40;;;;;;;13.98;69.84;100244.22;5068197;28;20111;-69
2022/10/10 09:05:19;;;;;;;0.95;0.95;;;;;;;13.77;68.80;100222.13;5068590;28;20029;-68
2022/10/10 09:08:11;;;;;;;0.40;0.40;;;;;;;13.81;68.76;100225.50;5068463;28;20072;-69
2022/10/10 09:10:51;;;;;;;1.65;1.55;;;;;;;13.77;69.36;100216.91;5067132;28;20032;-68
2022/10/10 09:13:31;;;;;;;0.40;0.40;;;;;;;13.84;69.37;100226.31;5068391;28;20025;-68
2022/10/10 09:16:01;;;;;;;7.13;3.25;;;;;;;13.76;69.35;100223.03;5068436;28;20033;-68
2022/10/10 09:18:46;;;;;;;2.00;1.90;;;;;;;14.05;68.93;100218.81;5068101;28;20084;-68
2022/10/10 09:21:40;;;;;;;2.75;2.55;;;;;;;13.97;68.24;100226.84;5066893;28;20021;-68
2022/10/10 09:24:22;;;;;;;0.30;0.30;;;;;;;13.85;68.09;100214.97;5064680;28;20048;-68
2022/10/10 09:26:55;;;;;;;2.00;0.88;;;;;;;13.65;68.29;100205.03;5066523;28;20013;-68
2022/10/10 09:29:45;;;;;;;0.40;0.40;;;;;;;13.49;68.43;100201.91;5068301;28;20457;-68
2022/10/10 09:32:18;;;;;;;0.40;0.40;;;;;;;13.47;68.82;100180.22;5067816;28;20465;-68
2022/10/10 09:34:59;;;;;;;0.50;0.50;;;;;;;13.96;68.36;100185.13;5065381;28;20028;-69
2022/10/10 09:37:31;;;;;;;0.80;0.80;;;;;;;14.19;66.61;100188.88;5067620;28;20053;-68
2022/10/10 09:40:10;;;;;;;0.43;0.43;;;;;;;14.08;66.17;100165.66;5065922;28;20052;-69
2022/10/10 09:42:37;;;;;;;0.40;0.40;;;;;;;13.80;67.18;100180.28;5067129;28;20098;-68
2022/10/10 09:45:15;;;;;;;1.38;0.85;;;;;;;13.69;67.92;100154.47;5067607;28;20025;-68
2022/10/10 09:47:40;;;;;;;0.40;0.40;;;;;;;14.29;66.80;100164.25;5067302;28;20025;-68
2022/10/10 09:50:06;;;;;;;0.40;0.40;;;;;;;14.26;67.11;100156.50;5067491;28;20055;-70
2022/10/10 09:52:31;;;;;;;0.38;0.38;;;;;;;14.35;66.73;100164.06;5065927;28;20314;-68
2022/10/10 09:55:13;;;;;;;0.40;0.40;;;;;;;14.60;66.88;100168.56;5066973;28;20028;-67
2022/10/10 09:57:41;;;;;;;0.40;0.40;;;;;;;14.55;65.76;100160.03;5066481;28;20025;-68
2022/10/10 10:00:24;;;;;;;0.30;0.30;;;;;;;14.33;65.63;100178.91;5066496;28;20032;-68
2022/10/10 10:03:02;;;;;;;0.30;0.30;;;;;;;14.11;66.63;100162.97;5067075;28;20024;-68
2022/10/10 10:05:28;;;;;;;15.00;4.10;;;;;;;13.99;66.89;100153.75;5066892;28;20029;-68
2022/10/10 10:07:54;;;;;;;0.40;0.40;;;;;;;14.00;66.96;100147.59;5066936;28;20021;-68
2022/10/10 10:10:25;;;;;;;0.95;0.57;;;;;;;14.06;66.33;100162.25;5067357;28;20024;-68
2022/10/10 10:12:52;;;;;;;0.40;0.40;;;;;;;13.95;66.22;100155.56;5067124;28;20017;-68
2022/10/10 10:15:19;;;;;;;0.40;0.40;;;;;;;13.86;66.88;100151.47;5067266;28;20029;-68
2022/10/10 10:17:45;;;;;;;0.40;0.40;;;;;;;13.91;66.32;100148.72;5066450;28;20025;-71
2022/10/10 10:20:29;;;;;;;1.38;1.30;;;;;;;13.85;66.23;100147.13;5066454;28;20084;-68
2022/10/10 10:22:55;;;;;;;3.67;3.33;;;;;;;13.60;66.07;100121.69;5066514;28;20044;-68
2022/10/10 10:25:36;;;;;;;0.40;0.40;;;;;;;13.55;67.06;100140.94;5066933;28;20047;-69
2022/10/10 10:28:22;;;;;;;0.50;0.50;;;;;;;13.51;67.21;100142.78;5066961;28;20021;-69
2022/10/10 10:30:51;;;;;;;59.83;3.13;;;;;;;13.64;66.62;100145.94;5066322;28;20033;-68
2022/10/10 10:33:39;;;;;;;0.30;0.30;;;;;;;13.43;67.36;100137.72;5065963;28;20580;-67
2022/10/10 10:36:17;;;;;;;0.45;0.45;;;;;;;13.38;67.60;100130.03;5066273;28;20025;-68
2022/10/10 10:38:51;;;;;;;0.40;0.40;;;;;;;13.32;67.81;100131.91;5066515;28;20036;-68
2022/10/10 10:41:53;;;;;;;0.40;0.40;;;;;;;13.20;68.31;100120.88;5066047;28;20017;-68
2022/10/10 10:44:38;;;;;;;0.40;0.40;;;;;;;13.48;67.98;100130.63;5065372;28;20041;-70
2022/10/10 10:47:47;;;;;;;0.40;0.40;;;;;;;13.35;67.79;100127.50;5065819;28;20037;-68
2022/10/10 10:50:36;;;;;;;4.40;2.17;;;;;;;13.45;69.02;100120.28;5064805;28;20029;-69
2022/10/10 10:53:18;;;;;;;0.40;0.40;;;;;;;13.88;67.68;100113.13;5064873;28;20049;-68
2022/10/10 10:55:59;;;;;;;0.40;0.40;;;;;;;14.00;68.12;100098.03;5065982;28;20032;-69
2022/10/10 10:58:42;;;;;;;0.40;0.40;;;;;;;14.73;65.81;100103.75;5066035;28;20477;-68
2022/10/10 11:01:20;;;;;;;0.40;0.40;;;;;;;15.21;64.38;100087.47;5064808;28;20050;-71
2022/10/10 11:03:52;;;;;;;0.40;0.40;;;;;;;15.50;63.01;100077.81;5065986;28;20056;-69
2022/10/10 11:06:54;;;;;;;0.40;0.40;;;;;;;16.25;60.17;100077.81;5065957;28;20080;-69
2022/10/10 11:09:25;;;;;;;0.40;0.40;;;;;;;16.48;58.56;100071.69;5065983;28;20032;-68
2022/10/10 11:12:09;;;;;;;0.40;0.40;;;;;;;16.25;59.79;100063.84;5064649;28;20040;-67
2022/10/10 11:14:46;;;;;;;0.30;0.30;;;;;;;16.19;59.49;100072.81;5065883;28;20055;-67
2022/10/10 11:17:14;;;;;;;0.40;0.40;;;;;;;15.63;60.19;100061.69;5065669;28;20047;-65
2022/10/10 11:19:55;;;;;;;0.50;0.50;;;;;;;15.25;61.57;100049.88;5065325;28;20065;-65
2022/10/10 11:22:24;;;;;;;0.75;0.75;;;;;;;15.02;61.24;100053.25;5064052;28;20017;-65
2022/10/10 11:24:56;;;;;;;1.60;1.60;;;;;;;14.66;62.72;100051.75;5063375;28;20537;-65
2022/10/10 11:27:29;;;;;;;0.40;0.40;;;;;;;14.60;62.83;100058.03;5063468;28;20045;-66
2022/10/10 11:30:18;;;;;;;0.60;0.60;;;;;;;14.36;63.91;100063.91;5065520;28;20044;-67
2022/10/10 11:33:04;;;;;;;0.40;0.40;;;;;;;14.45;63.62;100054.97;5062981;28;20025;-66
2022/10/10 11:35:35;;;;;;;0.30;0.30;;;;;;;14.39;62.42;100049.94;5064775;28;20029;-69
2022/10/10 11:38:13;;;;;;;0.50;0.50;;;;;;;14.09;63.55;100058.59;5065445;28;20025;-68
2022/10/10 11:41:11;;;;;;;0.40;0.40;;;;;;;13.93;63.77;100054.75;5065439;28;20029;-68